createdAt,value
2022-09-05T00:05:09.796Z,3.38
2022-09-05T00:10:51.944Z,4.40
2022-09-05T00:16:36.415Z,4.75
2022-09-05T00:24:35.901Z,4.70
2022-09-05T00:28:00.171Z,3.60
2022-09-05T00:33:31.899Z,5.20
2022-09-05T00:38:59.796Z,4.10
2022-09-05T00:44:25.935Z,3.72
2022-09-05T00:49:53.616Z,3.83
2022-09-05T00:55:23.084Z,3.60
2022-09-05T01:00:52.824Z,3.22
2022-09-05T01:06:30.908Z,3.90
2022-09-05T01:12:11.516Z,3.10
2022-09-05T01:17:44.708Z,3.20
2022-09-05T01:23:29.747Z,2.97
2022-09-05T01:29:16.373Z,2.67
2022-09-05T01:34:55.731Z,3.22
2022-09-05T01:40:25.217Z,3.20
2022-09-05T01:45:52.406Z,2.90
2022-09-05T01:51:29.137Z,2.55
2022-09-05T01:57:04.713Z,3.47
2022-09-05T02:02:50.706Z,2.80
2022-09-05T02:08:35.705Z,2.85
2022-09-05T02:14:01.543Z,3.22
2022-09-05T02:19:29.817Z,3.13
2022-09-05T02:24:58.486Z,2.15
2022-09-05T02:30:58.978Z,2.20
2022-09-05T02:36:36.014Z,2.33
2022-09-05T02:45:14.817Z,2.53
2022-09-05T02:47:50.445Z,2.45
2022-09-05T02:57:25.548Z,2.60
2022-09-05T02:59:10.516Z,3.10
2022-09-05T03:04:39.149Z,2.30
2022-09-05T03:10:17.876Z,2.63
2022-09-05T03:16:16.115Z,2.40
2022-09-05T03:22:24.174Z,2.50
2022-09-05T03:28:24.067Z,2.80
2022-09-05T03:34:14.335Z,2.93
2022-09-05T03:39:54.256Z,2.30
2022-09-05T03:45:37.359Z,2.53
2022-09-05T03:57:13.844Z,2.77
2022-09-05T03:57:33.833Z,2.93
2022-09-05T04:07:48.166Z,3.37
2022-09-05T04:08:58.285Z,3.73
2022-09-05T04:14:27.489Z,4.10
2022-09-05T04:19:55.274Z,4.27
2022-09-05T04:25:25.305Z,4.20
2022-09-05T04:30:50.388Z,4.13
2022-09-05T04:36:20.750Z,3.60
2022-09-05T04:41:47.183Z,4.13
2022-09-05T04:47:13.108Z,4.47
2022-09-05T04:52:55.815Z,4.00
2022-09-05T04:58:36.408Z,4.60
2022-09-05T05:06:16.279Z,3.77
2022-09-05T05:10:25.586Z,4.47
2022-09-05T05:18:14.992Z,4.10
2022-09-05T05:21:32.808Z,4.63
2022-09-05T05:27:02.803Z,4.70
2022-09-05T05:32:46.156Z,4.77
2022-09-05T05:38:24.679Z,3.93
2022-09-05T05:43:50.252Z,4.63
2022-09-05T05:49:37.734Z,4.68
2022-09-05T05:55:14.070Z,5.00
2022-09-05T06:01:27.388Z,4.90
2022-09-05T06:07:04.674Z,5.17
2022-09-05T06:15:01.922Z,5.78
2022-09-05T06:19:15.181Z,5.30
2022-09-05T06:25:20.431Z,5.00
2022-09-05T06:30:48.635Z,6.53
2022-09-05T06:36:44.359Z,6.25
2022-09-05T06:42:33.370Z,6.00
2022-09-05T06:48:06.206Z,4.63
2022-09-05T06:53:43.581Z,5.47
2022-09-05T06:59:43.866Z,4.55
2022-09-05T07:05:37.031Z,4.90
2022-09-05T07:11:11.450Z,4.38
2022-09-05T07:16:43.837Z,3.90
2022-09-05T07:22:47.925Z,4.28
2022-09-05T07:28:28.582Z,3.78
2022-09-05T07:34:21.505Z,4.20
2022-09-05T07:39:49.787Z,3.03
2022-09-05T07:45:18.435Z,3.17
2022-09-05T07:56:36.302Z,2.65
2022-09-05T07:57:08.834Z,2.83
2022-09-05T08:02:29.364Z,3.30
2022-09-05T08:07:55.835Z,2.63
2022-09-05T08:13:33.919Z,2.60
2022-09-05T08:19:06.316Z,3.20
2022-09-05T08:24:33.648Z,2.80
2022-09-05T08:30:25.636Z,2.53
2022-09-05T08:35:53.289Z,1.95
2022-09-05T08:41:44.704Z,2.05
2022-09-05T08:47:19.499Z,1.70
2022-09-05T08:52:53.727Z,2.17
2022-09-05T08:58:34.280Z,1.83
2022-09-05T09:04:14.115Z,1.77
2022-09-05T09:09:45.365Z,1.67
2022-09-05T09:15:15.002Z,1.48
2022-09-05T09:20:49.194Z,1.27
2022-09-05T09:26:17.072Z,1.30
2022-09-05T09:31:46.908Z,1.60
2022-09-05T09:37:50.701Z,1.10
2022-09-05T09:43:23.223Z,1.10
2022-09-05T09:49:02.939Z,1.50
2022-09-05T09:54:45.090Z,1.30
2022-09-05T10:00:17.574Z,1.40
2022-09-05T10:10:36.002Z,1.40
2022-09-05T10:12:02.208Z,1.35
2022-09-05T10:17:54.659Z,1.35
2022-09-05T10:23:50.935Z,1.40
2022-09-05T10:29:37.849Z,1.48
2022-09-05T10:35:22.136Z,1.20
2022-09-05T10:41:11.239Z,1.33
2022-09-05T10:46:57.053Z,1.05
2022-09-05T10:52:26.214Z,1.63
2022-09-05T10:58:01.903Z,1.20
2022-09-05T11:03:30.658Z,1.40
2022-09-05T11:09:14.378Z,1.15
2022-09-05T11:14:49.374Z,1.10
2022-09-05T11:20:35.547Z,1.50
2022-09-05T11:26:06.085Z,1.27
2022-09-05T11:32:40.062Z,1.30
2022-09-05T11:39:52.066Z,1.23
2022-09-05T11:44:25.222Z,1.30
2022-09-05T11:50:11.539Z,0.95
2022-09-05T11:55:46.347Z,0.95
2022-09-05T12:01:36.816Z,1.63
2022-09-05T12:07:30.147Z,1.60
2022-09-05T12:13:08.350Z,1.23
2022-09-05T12:18:42.010Z,1.02
2022-09-05T12:25:18.015Z,1.50
2022-09-05T12:29:59.987Z,1.30
2022-09-05T12:36:08.278Z,1.48
2022-09-05T12:41:43.500Z,1.33
2022-09-05T12:47:16.733Z,1.80
2022-09-05T12:52:46.854Z,1.67
2022-09-05T13:01:27.114Z,1.63
2022-09-05T13:04:18.116Z,1.42
2022-09-05T13:10:44.596Z,1.83
2022-09-05T13:15:36.203Z,1.30
2022-09-05T13:21:07.691Z,1.80
2022-09-05T13:26:38.941Z,1.40
2022-09-05T13:38:00.573Z,1.98
2022-09-05T13:43:45.805Z,2.03
2022-09-05T13:49:32.059Z,1.42
2022-09-05T13:55:04.719Z,2.08
2022-09-05T14:01:06.382Z,1.50
2022-09-05T14:06:48.779Z,2.22
2022-09-05T14:12:19.562Z,1.88
2022-09-05T14:18:20.147Z,1.33
2022-09-05T14:23:53.349Z,1.50
2022-09-05T14:29:19.872Z,1.70
2022-09-05T14:37:48.806Z,1.75
2022-09-05T14:41:15.202Z,1.63
2022-09-05T14:47:00.013Z,1.50
2022-09-05T14:52:28.513Z,1.80
2022-09-05T15:02:28.462Z,1.42
2022-09-05T15:12:14.752Z,1.73
2022-09-05T15:15:16.100Z,1.42
2022-09-05T15:20:41.785Z,1.50
2022-09-05T15:26:08.045Z,1.63
2022-09-05T15:31:31.342Z,2.00
2022-09-05T15:36:55.581Z,1.23
2022-09-05T15:42:35.254Z,1.23
2022-09-05T15:48:26.156Z,1.77
2022-09-05T15:53:52.400Z,3.38
2022-09-05T15:59:17.258Z,2.58
2022-09-05T16:08:19.686Z,1.75
2022-09-05T16:10:56.088Z,2.15
2022-09-05T16:23:18.191Z,1.83
2022-09-05T16:23:23.413Z,2.53
2022-09-05T16:27:51.503Z,1.63
2022-09-05T16:33:18.247Z,2.10
2022-09-05T16:38:48.846Z,2.10
2022-09-05T16:44:16.208Z,2.55
2022-09-05T16:49:44.979Z,2.08
2022-09-05T16:55:17.338Z,2.70
2022-09-05T17:00:53.972Z,2.03
2022-09-05T17:06:25.497Z,2.75
2022-09-05T17:12:00.627Z,2.55
2022-09-05T17:18:18.610Z,2.50
2022-09-05T17:29:19.904Z,3.80
2022-09-05T17:29:28.938Z,1.33
2022-09-05T17:35:17.764Z,1.80
2022-09-05T17:41:02.504Z,1.50
2022-09-05T17:46:28.783Z,1.00
2022-09-05T17:52:25.956Z,1.58
2022-09-05T17:57:50.829Z,1.60
2022-09-05T18:04:15.805Z,1.35
2022-09-05T18:09:58.798Z,2.13
2022-09-05T18:16:12.565Z,1.77
2022-09-05T18:21:48.200Z,1.92
2022-09-05T18:28:03.933Z,2.03
2022-09-05T18:33:55.542Z,1.95
2022-09-05T18:39:41.910Z,2.95
2022-09-05T18:45:14.521Z,3.60
2022-09-05T18:50:46.918Z,3.15
2022-09-05T18:56:20.172Z,3.03
2022-09-05T19:01:53.008Z,3.30
2022-09-05T19:07:22.378Z,3.45
2022-09-05T19:12:53.758Z,5.07
2022-09-05T19:18:37.075Z,3.70
2022-09-05T19:24:05.824Z,4.03
2022-09-05T19:35:29.380Z,4.95
2022-09-05T19:36:58.282Z,4.82
2022-09-05T19:47:29.783Z,6.00
2022-09-05T19:47:47.592Z,6.25
2022-09-05T19:52:33.059Z,5.03
2022-09-05T19:58:19.278Z,4.57
2022-09-05T20:03:44.972Z,5.38
2022-09-05T20:09:10.578Z,3.47
2022-09-05T20:14:36.812Z,3.55
2022-09-05T20:20:09.777Z,4.13
2022-09-05T20:25:39.672Z,4.18
2022-09-05T20:31:08.260Z,6.22
2022-09-05T20:41:53.849Z,4.47
2022-09-05T20:43:29.306Z,5.30
2022-09-05T20:54:04.266Z,5.43
2022-09-05T20:54:21.138Z,5.32
2022-09-05T20:59:38.448Z,4.70
2022-09-05T21:05:06.801Z,3.58
2022-09-05T21:10:56.004Z,3.78
2022-09-05T21:16:21.714Z,2.78
2022-09-05T21:21:46.368Z,3.85
2022-09-05T21:27:17.843Z,3.78
2022-09-05T21:32:41.950Z,2.72
2022-09-05T21:38:06.854Z,3.55
2022-09-05T21:47:39.415Z,3.33
2022-09-05T21:49:14.857Z,3.45
2022-09-05T21:59:18.343Z,3.78
2022-09-05T22:00:25.490Z,3.13
2022-09-05T22:05:49.483Z,2.65
2022-09-05T22:11:14.980Z,3.33
2022-09-05T22:16:44.734Z,3.38
2022-09-05T22:22:16.200Z,2.97
2022-09-05T22:27:44.875Z,3.60
2022-09-05T22:33:08.863Z,3.85
2022-09-05T22:38:33.278Z,4.25
2022-09-05T22:43:57.902Z,4.07
2022-09-05T22:49:21.154Z,4.00
2022-09-05T22:54:44.612Z,3.65
2022-09-05T23:00:11.390Z,3.35
2022-09-05T23:05:35.062Z,4.35
2022-09-05T23:10:58.465Z,5.88
2022-09-05T23:16:23.101Z,4.72
2022-09-05T23:21:46.467Z,4.40
2022-09-05T23:27:09.740Z,4.10
2022-09-05T23:32:34.527Z,4.25
2022-09-05T23:37:57.867Z,4.47
2022-09-05T23:43:21.099Z,4.40
2022-09-05T23:48:45.787Z,4.00
2022-09-05T23:54:08.916Z,4.30
2022-09-05T23:59:32.090Z,3.63
